sensor_id;sensor_type;location;lat;lon;timestamp;temperature;humidity
38514;DHT22;24282;48.400;10.808;2023-03-23T00:01:54;8.60;72.60
38514;DHT22;24282;48.400;10.808;2023-03-23T00:04:20;8.50;72.60
38514;DHT22;24282;48.400;10.808;2023-03-23T00:06:46;8.50;72.70
38514;DHT22;24282;48.400;10.808;2023-03-23T00:09:14;8.50;72.70
38514;DHT22;24282;48.400;10.808;2023-03-23T00:11:41;8.50;72.70
38514;DHT22;24282;48.400;10.808;2023-03-23T00:14:08;8.50;72.60
38514;DHT22;24282;48.400;10.808;2023-03-23T00:16:39;8.60;72.60
38514;DHT22;24282;48.400;10.808;2023-03-23T00:19:11;8.60;72.60
38514;DHT22;24282;48.400;10.808;2023-03-23T00:21:41;8.50;72.60
38514;DHT22;24282;48.400;10.808;2023-03-23T00:24:15;8.60;72.60
38514;DHT22;24282;48.400;10.808;2023-03-23T00:26:45;8.60;72.60
38514;DHT22;24282;48.400;10.808;2023-03-23T00:29:20;8.50;72.80
38514;DHT22;24282;48.400;10.808;2023-03-23T00:31:52;8.50;72.80
38514;DHT22;24282;48.400;10.808;2023-03-23T00:34:20;8.50;72.80
38514;DHT22;24282;48.400;10.808;2023-03-23T00:36:51;8.50;72.70
38514;DHT22;24282;48.400;10.808;2023-03-23T00:39:19;8.50;72.90
38514;DHT22;24282;48.400;10.808;2023-03-23T00:41:47;8.50;73.00
38514;DHT22;24282;48.400;10.808;2023-03-23T00:44:13;8.50;72.90
38514;DHT22;24282;48.400;10.808;2023-03-23T00:46:46;8.40;72.90
38514;DHT22;24282;48.400;10.808;2023-03-23T00:49:16;8.40;73.10
38514;DHT22;24282;48.400;10.808;2023-03-23T00:51:42;8.40;73.30
38514;DHT22;24282;48.400;10.808;2023-03-23T00:54:09;8.40;73.20
38514;DHT22;24282;48.400;10.808;2023-03-23T00:56:35;8.40;73.40
38514;DHT22;24282;48.400;10.808;2023-03-23T00:59:02;8.40;73.30
38514;DHT22;24282;48.400;10.808;2023-03-23T01:01:28;8.40;73.40
38514;DHT22;24282;48.400;10.808;2023-03-23T01:03:58;8.40;73.40
38514;DHT22;24282;48.400;10.808;2023-03-23T01:06:30;8.40;73.30
38514;DHT22;24282;48.400;10.808;2023-03-23T01:08:57;8.40;73.40
38514;DHT22;24282;48.400;10.808;2023-03-23T01:11:24;8.50;73.50
38514;DHT22;24282;48.400;10.808;2023-03-23T01:13:51;8.50;73.50
38514;DHT22;24282;48.400;10.808;2023-03-23T01:16:19;8.50;73.30
38514;DHT22;24282;48.400;10.808;2023-03-23T01:18:45;8.50;73.00
38514;DHT22;24282;48.400;10.808;2023-03-23T01:21:13;8.50;72.90
38514;DHT22;24282;48.400;10.808;2023-03-23T01:23:40;8.50;72.90
38514;DHT22;24282;48.400;10.808;2023-03-23T01:26:17;8.50;72.90
38514;DHT22;24282;48.400;10.808;2023-03-23T01:28:44;8.50;72.90
38514;DHT22;24282;48.400;10.808;2023-03-23T01:31:16;8.50;72.80
38514;DHT22;24282;48.400;10.808;2023-03-23T01:33:43;8.60;72.70
38514;DHT22;24282;48.400;10.808;2023-03-23T01:36:15;8.60;72.80
38514;DHT22;24282;48.400;10.808;2023-03-23T01:38:47;8.60;72.90
38514;DHT22;24282;48.400;10.808;2023-03-23T01:41:14;8.60;72.90
38514;DHT22;24282;48.400;10.808;2023-03-23T01:46:58;8.70;72.60
38514;DHT22;24282;48.400;10.808;2023-03-23T01:49:28;8.70;72.60
38514;DHT22;24282;48.400;10.808;2023-03-23T01:52:02;8.70;72.70
38514;DHT22;24282;48.400;10.808;2023-03-23T01:54:29;8.60;73.00
38514;DHT22;24282;48.400;10.808;2023-03-23T01:57:11;8.60;73.00
38514;DHT22;24282;48.400;10.808;2023-03-23T01:59:41;8.60;73.20
38514;DHT22;24282;48.400;10.808;2023-03-23T02:02:21;8.60;73.40
38514;DHT22;24282;48.400;10.808;2023-03-23T02:04:48;8.50;73.60
38514;DHT22;24282;48.400;10.808;2023-03-23T02:07:18;8.50;73.70
38514;DHT22;24282;48.400;10.808;2023-03-23T02:09:45;8.60;73.50
38514;DHT22;24282;48.400;10.808;2023-03-23T02:12:12;8.60;73.50
38514;DHT22;24282;48.400;10.808;2023-03-23T02:14:38;8.60;73.50
38514;DHT22;24282;48.400;10.808;2023-03-23T02:20:13;8.60;73.50
38514;DHT22;24282;48.400;10.808;2023-03-23T02:36:39;8.60;73.20
38514;DHT22;24282;48.400;10.808;2023-03-23T02:39:21;8.60;73.40
38514;DHT22;24282;48.400;10.808;2023-03-23T02:41:53;8.60;73.50
38514;DHT22;24282;48.400;10.808;2023-03-23T02:44:22;8.60;73.70
38514;DHT22;24282;48.400;10.808;2023-03-23T02:46:52;8.60;73.80
38514;DHT22;24282;48.400;10.808;2023-03-23T02:49:19;8.60;74.00
38514;DHT22;24282;48.400;10.808;2023-03-23T02:51:46;8.60;74.10
38514;DHT22;24282;48.400;10.808;2023-03-23T02:54:15;8.60;74.00
38514;DHT22;24282;48.400;10.808;2023-03-23T02:56:43;8.70;73.90
38514;DHT22;24282;48.400;10.808;2023-03-23T02:59:17;8.60;73.90
38514;DHT22;24282;48.400;10.808;2023-03-23T03:04:15;8.60;73.90
38514;DHT22;24282;48.400;10.808;2023-03-23T03:09:52;8.60;74.00
38514;DHT22;24282;48.400;10.808;2023-03-23T03:12:41;8.70;74.00
38514;DHT22;24282;48.400;10.808;2023-03-23T03:18:04;8.60;74.30
38514;DHT22;24282;48.400;10.808;2023-03-23T03:20:31;8.70;74.20
38514;DHT22;24282;48.400;10.808;2023-03-23T03:22:59;8.70;74.20
38514;DHT22;24282;48.400;10.808;2023-03-23T03:25:27;8.70;74.30
38514;DHT22;24282;48.400;10.808;2023-03-23T03:27:56;8.70;74.50
38514;DHT22;24282;48.400;10.808;2023-03-23T03:30:36;8.70;74.50
38514;DHT22;24282;48.400;10.808;2023-03-23T03:33:03;8.70;74.40
38514;DHT22;24282;48.400;10.808;2023-03-23T03:35:30;8.70;74.50
38514;DHT22;24282;48.400;10.808;2023-03-23T03:38:05;8.70;74.60
38514;DHT22;24282;48.400;10.808;2023-03-23T03:40:31;8.80;74.60
38514;DHT22;24282;48.400;10.808;2023-03-23T03:42:57;8.70;74.60
38514;DHT22;24282;48.400;10.808;2023-03-23T03:45:25;8.70;74.70
38514;DHT22;24282;48.400;10.808;2023-03-23T03:47:51;8.70;74.80
38514;DHT22;24282;48.400;10.808;2023-03-23T03:50:17;8.80;74.90
38514;DHT22;24282;48.400;10.808;2023-03-23T03:52:42;8.70;75.10
38514;DHT22;24282;48.400;10.808;2023-03-23T03:55:09;8.80;75.20
38514;DHT22;24282;48.400;10.808;2023-03-23T03:57:38;8.80;75.50
38514;DHT22;24282;48.400;10.808;2023-03-23T04:00:06;8.80;75.70
38514;DHT22;24282;48.400;10.808;2023-03-23T04:02:40;8.80;75.90
38514;DHT22;24282;48.400;10.808;2023-03-23T04:05:07;8.80;76.70
38514;DHT22;24282;48.400;10.808;2023-03-23T04:07:34;8.80;76.80
38514;DHT22;24282;48.400;10.808;2023-03-23T04:10:06;8.80;77.00
38514;DHT22;24282;48.400;10.808;2023-03-23T04:12:34;8.80;77.30
38514;DHT22;24282;48.400;10.808;2023-03-23T04:15:30;8.80;77.60
38514;DHT22;24282;48.400;10.808;2023-03-23T04:17:56;8.80;77.50
38514;DHT22;24282;48.400;10.808;2023-03-23T04:20:24;8.90;77.30
38514;DHT22;24282;48.400;10.808;2023-03-23T04:22:50;8.90;77.40
38514;DHT22;24282;48.400;10.808;2023-03-23T04:25:19;8.90;77.80
38514;DHT22;24282;48.400;10.808;2023-03-23T04:27:51;8.90;77.80
38514;DHT22;24282;48.400;10.808;2023-03-23T04:30:29;8.90;78.00
38514;DHT22;24282;48.400;10.808;2023-03-23T04:33:00;8.90;78.10
38514;DHT22;24282;48.400;10.808;2023-03-23T04:35:30;8.90;78.40
38514;DHT22;24282;48.400;10.808;2023-03-23T04:38:26;9.00;78.30
38514;DHT22;24282;48.400;10.808;2023-03-23T04:40:58;9.00;78.50
38514;DHT22;24282;48.400;10.808;2023-03-23T04:43:43;9.00;78.60
38514;DHT22;24282;48.400;10.808;2023-03-23T04:46:20;9.10;78.70
38514;DHT22;24282;48.400;10.808;2023-03-23T04:48:48;9.00;78.70
38514;DHT22;24282;48.400;10.808;2023-03-23T04:51:19;9.00;78.60
38514;DHT22;24282;48.400;10.808;2023-03-23T04:53:49;9.00;78.50
38514;DHT22;24282;48.400;10.808;2023-03-23T04:56:15;9.10;78.70
38514;DHT22;24282;48.400;10.808;2023-03-23T04:58:44;9.10;78.70
38514;DHT22;24282;48.400;10.808;2023-03-23T05:01:30;9.10;78.80
38514;DHT22;24282;48.400;10.808;2023-03-23T05:04:17;9.10;78.70
38514;DHT22;24282;48.400;10.808;2023-03-23T05:06:53;9.10;78.70
38514;DHT22;24282;48.400;10.808;2023-03-23T05:09:24;9.10;78.70
38514;DHT22;24282;48.400;10.808;2023-03-23T05:11:50;9.10;78.60
38514;DHT22;24282;48.400;10.808;2023-03-23T05:14:16;9.10;78.70
38514;DHT22;24282;48.400;10.808;2023-03-23T05:16:47;9.10;78.70
38514;DHT22;24282;48.400;10.808;2023-03-23T05:19:16;9.10;78.90
38514;DHT22;24282;48.400;10.808;2023-03-23T05:21:43;9.10;78.90
38514;DHT22;24282;48.400;10.808;2023-03-23T05:24:09;9.10;78.80
38514;DHT22;24282;48.400;10.808;2023-03-23T05:26:35;9.10;78.80
38514;DHT22;24282;48.400;10.808;2023-03-23T05:29:12;9.00;78.80
38514;DHT22;24282;48.400;10.808;2023-03-23T05:31:48;9.00;78.80
38514;DHT22;24282;48.400;10.808;2023-03-23T05:34:15;9.10;78.70
38514;DHT22;24282;48.400;10.808;2023-03-23T05:36:47;9.20;78.60
38514;DHT22;24282;48.400;10.808;2023-03-23T05:39:29;9.20;78.70
38514;DHT22;24282;48.400;10.808;2023-03-23T05:42:15;9.20;78.60
38514;DHT22;24282;48.400;10.808;2023-03-23T05:44:50;9.30;78.40
38514;DHT22;24282;48.400;10.808;2023-03-23T05:47:16;9.30;78.30
38514;DHT22;24282;48.400;10.808;2023-03-23T05:49:49;9.40;78.00
38514;DHT22;24282;48.400;10.808;2023-03-23T05:52:18;9.40;77.90
38514;DHT22;24282;48.400;10.808;2023-03-23T05:54:45;9.40;77.80
38514;DHT22;24282;48.400;10.808;2023-03-23T05:57:11;9.50;77.80
38514;DHT22;24282;48.400;10.808;2023-03-23T05:59:50;9.50;78.00
38514;DHT22;24282;48.400;10.808;2023-03-23T06:02:21;9.60;78.00
38514;DHT22;24282;48.400;10.808;2023-03-23T06:04:49;9.60;77.90
38514;DHT22;24282;48.400;10.808;2023-03-23T06:07:21;9.70;77.60
38514;DHT22;24282;48.400;10.808;2023-03-23T06:09:54;9.70;77.30
38514;DHT22;24282;48.400;10.808;2023-03-23T06:12:22;9.80;76.50
38514;DHT22;24282;48.400;10.808;2023-03-23T06:15:09;9.90;76.10
38514;DHT22;24282;48.400;10.808;2023-03-23T06:18:07;10.00;75.90
38514;DHT22;24282;48.400;10.808;2023-03-23T06:20:40;10.00;75.40
38514;DHT22;24282;48.400;10.808;2023-03-23T06:23:45;10.10;74.60
38514;DHT22;24282;48.400;10.808;2023-03-23T06:26:13;10.20;73.60
38514;DHT22;24282;48.400;10.808;2023-03-23T06:28:42;10.40;72.00
38514;DHT22;24282;48.400;10.808;2023-03-23T06:31:08;10.40;71.60
38514;DHT22;24282;48.400;10.808;2023-03-23T06:33:37;10.50;71.30
38514;DHT22;24282;48.400;10.808;2023-03-23T06:36:23;10.60;70.60
38514;DHT22;24282;48.400;10.808;2023-03-23T06:39:08;10.70;70.50
38514;DHT22;24282;48.400;10.808;2023-03-23T06:41:49;10.70;70.70
38514;DHT22;24282;48.400;10.808;2023-03-23T06:44:15;10.70;71.00
38514;DHT22;24282;48.400;10.808;2023-03-23T06:46:42;10.70;70.90
38514;DHT22;24282;48.400;10.808;2023-03-23T06:49:16;10.70;70.80
38514;DHT22;24282;48.400;10.808;2023-03-23T06:51:53;10.70;71.00
38514;DHT22;24282;48.400;10.808;2023-03-23T06:54:22;10.70;71.00
38514;DHT22;24282;48.400;10.808;2023-03-23T06:56:49;10.80;71.10
38514;DHT22;24282;48.400;10.808;2023-03-23T06:59:15;10.80;71.10
38514;DHT22;24282;48.400;10.808;2023-03-23T07:01:42;10.80;71.20
38514;DHT22;24282;48.400;10.808;2023-03-23T07:04:08;10.80;71.30
38514;DHT22;24282;48.400;10.808;2023-03-23T07:06:46;10.90;71.10
38514;DHT22;24282;48.400;10.808;2023-03-23T07:09:13;10.90;71.00
38514;DHT22;24282;48.400;10.808;2023-03-23T07:11:39;10.90;70.70
38514;DHT22;24282;48.400;10.808;2023-03-23T07:14:14;11.00;70.00
38514;DHT22;24282;48.400;10.808;2023-03-23T07:16:40;11.00;69.20
38514;DHT22;24282;48.400;10.808;2023-03-23T07:19:06;11.20;68.20
38514;DHT22;24282;48.400;10.808;2023-03-23T07:21:32;11.20;68.40
38514;DHT22;24282;48.400;10.808;2023-03-23T07:23:58;11.20;68.60
38514;DHT22;24282;48.400;10.808;2023-03-23T07:26:41;11.30;68.50
38514;DHT22;24282;48.400;10.808;2023-03-23T07:29:08;11.30;67.90
38514;DHT22;24282;48.400;10.808;2023-03-23T07:31:41;11.30;67.80
38514;DHT22;24282;48.400;10.808;2023-03-23T07:34:07;11.40;67.80
38514;DHT22;24282;48.400;10.808;2023-03-23T07:36:54;11.40;68.20
38514;DHT22;24282;48.400;10.808;2023-03-23T07:39:21;11.50;68.40
38514;DHT22;24282;48.400;10.808;2023-03-23T07:41:51;11.60;68.20
38514;DHT22;24282;48.400;10.808;2023-03-23T07:44:29;11.60;68.50
38514;DHT22;24282;48.400;10.808;2023-03-23T07:46:55;11.70;68.80
38514;DHT22;24282;48.400;10.808;2023-03-23T07:49:29;11.80;69.50
38514;DHT22;24282;48.400;10.808;2023-03-23T07:52:06;11.80;69.10
38514;DHT22;24282;48.400;10.808;2023-03-23T07:54:32;11.80;69.30
38514;DHT22;24282;48.400;10.808;2023-03-23T07:57:03;11.90;69.70
38514;DHT22;24282;48.400;10.808;2023-03-23T07:59:32;11.90;69.80
38514;DHT22;24282;48.400;10.808;2023-03-23T08:01:59;12.00;70.30
38514;DHT22;24282;48.400;10.808;2023-03-23T08:04:31;12.20;70.00
38514;DHT22;24282;48.400;10.808;2023-03-23T08:07:41;12.20;70.00
38514;DHT22;24282;48.400;10.808;2023-03-23T08:10:42;12.40;68.70
38514;DHT22;24282;48.400;10.808;2023-03-23T08:13:28;12.50;67.90
38514;DHT22;24282;48.400;10.808;2023-03-23T08:16:16;12.60;67.10
38514;DHT22;24282;48.400;10.808;2023-03-23T08:19:02;12.80;67.00
38514;DHT22;24282;48.400;10.808;2023-03-23T08:21:33;12.90;65.90
38514;DHT22;24282;48.400;10.808;2023-03-23T08:24:31;13.00;64.50
38514;DHT22;24282;48.400;10.808;2023-03-23T08:27:24;13.20;64.60
38514;DHT22;24282;48.400;10.808;2023-03-23T08:30:19;13.40;63.40
38514;DHT22;24282;48.400;10.808;2023-03-23T08:33:16;13.60;62.70
38514;DHT22;24282;48.400;10.808;2023-03-23T08:36:00;13.80;62.60
38514;DHT22;24282;48.400;10.808;2023-03-23T08:38:49;13.90;62.40
38514;DHT22;24282;48.400;10.808;2023-03-23T08:41:43;14.00;62.20
38514;DHT22;24282;48.400;10.808;2023-03-23T08:44:36;14.20;60.00
38514;DHT22;24282;48.400;10.808;2023-03-23T08:47:25;14.40;58.40
38514;DHT22;24282;48.400;10.808;2023-03-23T08:50:13;14.50;56.60
38514;DHT22;24282;48.400;10.808;2023-03-23T08:52:59;14.70;55.60
38514;DHT22;24282;48.400;10.808;2023-03-23T08:55:55;14.80;54.30
38514;DHT22;24282;48.400;10.808;2023-03-23T08:58:24;14.90;54.00
38514;DHT22;24282;48.400;10.808;2023-03-23T09:01:08;15.00;53.60
38514;DHT22;24282;48.400;10.808;2023-03-23T09:03:53;15.00;53.40
38514;DHT22;24282;48.400;10.808;2023-03-23T09:06:19;15.00;53.80
38514;DHT22;24282;48.400;10.808;2023-03-23T09:08:45;15.10;53.70
38514;DHT22;24282;48.400;10.808;2023-03-23T09:11:11;15.10;53.90
38514;DHT22;24282;48.400;10.808;2023-03-23T09:13:38;15.10;54.30
38514;DHT22;24282;48.400;10.808;2023-03-23T09:16:05;15.10;53.90
38514;DHT22;24282;48.400;10.808;2023-03-23T09:18:32;15.10;53.70
38514;DHT22;24282;48.400;10.808;2023-03-23T09:20:59;15.20;53.90
38514;DHT22;24282;48.400;10.808;2023-03-23T09:23:25;15.10;54.20
38514;DHT22;24282;48.400;10.808;2023-03-23T09:25:51;15.30;53.70
38514;DHT22;24282;48.400;10.808;2023-03-23T09:28:18;15.30;53.60
38514;DHT22;24282;48.400;10.808;2023-03-23T09:30:44;15.30;53.70
38514;DHT22;24282;48.400;10.808;2023-03-23T09:33:11;15.40;53.60
38514;DHT22;24282;48.400;10.808;2023-03-23T09:35:37;15.40;53.20
38514;DHT22;24282;48.400;10.808;2023-03-23T09:38:05;15.40;53.00
38514;DHT22;24282;48.400;10.808;2023-03-23T09:40:43;15.40;53.00
38514;DHT22;24282;48.400;10.808;2023-03-23T09:46:02;15.30;53.40
38514;DHT22;24282;48.400;10.808;2023-03-23T09:56:52;15.40;53.50
38514;DHT22;24282;48.400;10.808;2023-03-23T09:59:31;15.50;53.10
38514;DHT22;24282;48.400;10.808;2023-03-23T10:02:19;15.40;53.40
38514;DHT22;24282;48.400;10.808;2023-03-23T10:04:51;15.40;53.70
38514;DHT22;24282;48.400;10.808;2023-03-23T10:07:20;15.40;54.20
38514;DHT22;24282;48.400;10.808;2023-03-23T10:09:51;15.30;54.20
38514;DHT22;24282;48.400;10.808;2023-03-23T10:12:34;15.30;54.40
38514;DHT22;24282;48.400;10.808;2023-03-23T10:15:18;15.40;54.40
38514;DHT22;24282;48.400;10.808;2023-03-23T10:20:58;15.60;53.60
38514;DHT22;24282;48.400;10.808;2023-03-23T10:26:54;15.60;53.80
38514;DHT22;24282;48.400;10.808;2023-03-23T10:29:26;15.70;54.20
38514;DHT22;24282;48.400;10.808;2023-03-23T10:31:58;15.70;55.00
38514;DHT22;24282;48.400;10.808;2023-03-23T10:34:57;15.70;54.90
38514;DHT22;24282;48.400;10.808;2023-03-23T10:37:31;15.80;54.20
38514;DHT22;24282;48.400;10.808;2023-03-23T10:40:00;15.90;53.90
38514;DHT22;24282;48.400;10.808;2023-03-23T10:42:30;15.90;53.70
38514;DHT22;24282;48.400;10.808;2023-03-23T10:45:00;16.00;53.60
38514;DHT22;24282;48.400;10.808;2023-03-23T10:47:26;16.10;53.70
38514;DHT22;24282;48.400;10.808;2023-03-23T10:49:57;16.10;53.50
38514;DHT22;24282;48.400;10.808;2023-03-23T10:52:36;16.30;52.50
38514;DHT22;24282;48.400;10.808;2023-03-23T10:57:31;16.40;50.90
38514;DHT22;24282;48.400;10.808;2023-03-23T11:02:39;16.60;51.60
38514;DHT22;24282;48.400;10.808;2023-03-23T11:05:23;16.50;52.50
38514;DHT22;24282;48.400;10.808;2023-03-23T11:07:53;16.60;51.30
38514;DHT22;24282;48.400;10.808;2023-03-23T11:10:35;16.50;51.10
38514;DHT22;24282;48.400;10.808;2023-03-23T11:13:01;16.60;51.40
38514;DHT22;24282;48.400;10.808;2023-03-23T11:15:38;16.70;51.00
38514;DHT22;24282;48.400;10.808;2023-03-23T11:18:10;16.60;51.80
38514;DHT22;24282;48.400;10.808;2023-03-23T11:20:39;16.60;51.40
38514;DHT22;24282;48.400;10.808;2023-03-23T11:28:30;16.70;50.80
38514;DHT22;24282;48.400;10.808;2023-03-23T11:30:59;16.80;50.80
38514;DHT22;24282;48.400;10.808;2023-03-23T11:33:30;16.80;50.70
38514;DHT22;24282;48.400;10.808;2023-03-23T11:35:56;16.90;51.00
38514;DHT22;24282;48.400;10.808;2023-03-23T11:38:23;16.90;51.40
38514;DHT22;24282;48.400;10.808;2023-03-23T11:40:53;17.00;51.30
38514;DHT22;24282;48.400;10.808;2023-03-23T11:43:21;17.10;50.10
38514;DHT22;24282;48.400;10.808;2023-03-23T11:46:02;17.20;50.30
38514;DHT22;24282;48.400;10.808;2023-03-23T11:48:45;17.20;51.10
38514;DHT22;24282;48.400;10.808;2023-03-23T11:51:30;17.10;50.70
38514;DHT22;24282;48.400;10.808;2023-03-23T11:56:25;17.00;50.90
38514;DHT22;24282;48.400;10.808;2023-03-23T11:58:57;17.00;51.20
38514;DHT22;24282;48.400;10.808;2023-03-23T12:01:28;17.00;51.40
38514;DHT22;24282;48.400;10.808;2023-03-23T12:06:58;17.10;50.70
38514;DHT22;24282;48.400;10.808;2023-03-23T12:12:23;17.10;51.30
38514;DHT22;24282;48.400;10.808;2023-03-23T12:15:14;17.10;51.80
38514;DHT22;24282;48.400;10.808;2023-03-23T12:18:23;17.10;51.20
38514;DHT22;24282;48.400;10.808;2023-03-23T12:21:03;17.10;50.80
38514;DHT22;24282;48.400;10.808;2023-03-23T12:23:45;17.00;50.50
38514;DHT22;24282;48.400;10.808;2023-03-23T12:29:04;17.00;50.20
38514;DHT22;24282;48.400;10.808;2023-03-23T12:31:56;16.90;50.30
38514;DHT22;24282;48.400;10.808;2023-03-23T12:37:32;16.90;52.10
38514;DHT22;24282;48.400;10.808;2023-03-23T12:45:45;16.90;51.60
38514;DHT22;24282;48.400;10.808;2023-03-23T12:48:23;17.00;51.50
38514;DHT22;24282;48.400;10.808;2023-03-23T12:51:20;17.10;51.50
38514;DHT22;24282;48.400;10.808;2023-03-23T12:56:23;17.30;51.10
38514;DHT22;24282;48.400;10.808;2023-03-23T12:59:45;17.30;51.30
38514;DHT22;24282;48.400;10.808;2023-03-23T13:01:47;17.30;51.20
38514;DHT22;24282;48.400;10.808;2023-03-23T13:04:30;17.30;51.20
38514;DHT22;24282;48.400;10.808;2023-03-23T13:06:58;17.40;50.40
38514;DHT22;24282;48.400;10.808;2023-03-23T13:12:10;17.30;51.10
38514;DHT22;24282;48.400;10.808;2023-03-23T13:17:47;17.20;51.50
38514;DHT22;24282;48.400;10.808;2023-03-23T13:20:41;17.20;51.40
38514;DHT22;24282;48.400;10.808;2023-03-23T13:25:47;17.40;51.50
38514;DHT22;24282;48.400;10.808;2023-03-23T13:28:20;17.60;51.10
38514;DHT22;24282;48.400;10.808;2023-03-23T13:31:02;17.90;50.20
38514;DHT22;24282;48.400;10.808;2023-03-23T13:33:33;18.10;49.90
38514;DHT22;24282;48.400;10.808;2023-03-23T13:36:28;18.20;49.30
38514;DHT22;24282;48.400;10.808;2023-03-23T13:38:55;18.20;49.40
38514;DHT22;24282;48.400;10.808;2023-03-23T13:41:22;18.20;48.60
38514;DHT22;24282;48.400;10.808;2023-03-23T13:43:48;18.40;48.50
38514;DHT22;24282;48.400;10.808;2023-03-23T13:46:28;18.40;49.10
38514;DHT22;24282;48.400;10.808;2023-03-23T13:49:18;18.40;48.80
38514;DHT22;24282;48.400;10.808;2023-03-23T14:01:56;18.10;48.90
38514;DHT22;24282;48.400;10.808;2023-03-23T14:04:30;17.90;49.50
38514;DHT22;24282;48.400;10.808;2023-03-23T14:07:11;17.90;48.90
38514;DHT22;24282;48.400;10.808;2023-03-23T14:09:41;17.70;49.60
38514;DHT22;24282;48.400;10.808;2023-03-23T14:12:23;17.60;50.00
38514;DHT22;24282;48.400;10.808;2023-03-23T14:14:56;17.60;50.90
38514;DHT22;24282;48.400;10.808;2023-03-23T14:17:39;17.40;52.50
38514;DHT22;24282;48.400;10.808;2023-03-23T14:20:06;17.30;55.00
38514;DHT22;24282;48.400;10.808;2023-03-23T14:22:37;17.10;56.30
38514;DHT22;24282;48.400;10.808;2023-03-23T14:25:12;17.00;56.30
38514;DHT22;24282;48.400;10.808;2023-03-23T14:27:39;17.00;57.50
38514;DHT22;24282;48.400;10.808;2023-03-23T14:30:12;16.90;56.50
38514;DHT22;24282;48.400;10.808;2023-03-23T14:32:39;16.90;56.40
38514;DHT22;24282;48.400;10.808;2023-03-23T14:35:19;16.90;55.80
38514;DHT22;24282;48.400;10.808;2023-03-23T14:37:46;16.90;55.90
38514;DHT22;24282;48.400;10.808;2023-03-23T14:40:15;16.80;56.40
38514;DHT22;24282;48.400;10.808;2023-03-23T14:42:42;16.80;56.70
38514;DHT22;24282;48.400;10.808;2023-03-23T14:45:14;16.80;55.60
38514;DHT22;24282;48.400;10.808;2023-03-23T14:47:45;16.80;54.80
38514;DHT22;24282;48.400;10.808;2023-03-23T14:50:28;16.70;55.30
38514;DHT22;24282;48.400;10.808;2023-03-23T14:53:09;16.70;55.10
38514;DHT22;24282;48.400;10.808;2023-03-23T14:55:35;16.60;55.30
38514;DHT22;24282;48.400;10.808;2023-03-23T14:58:11;16.60;54.90
38514;DHT22;24282;48.400;10.808;2023-03-23T15:00:45;16.60;55.20
38514;DHT22;24282;48.400;10.808;2023-03-23T15:03:14;16.60;55.70
38514;DHT22;24282;48.400;10.808;2023-03-23T15:05:59;16.60;55.80
38514;DHT22;24282;48.400;10.808;2023-03-23T15:08:29;16.60;55.20
38514;DHT22;24282;48.400;10.808;2023-03-23T15:11:21;16.50;55.00
38514;DHT22;24282;48.400;10.808;2023-03-23T15:13:49;16.50;55.50
38514;DHT22;24282;48.400;10.808;2023-03-23T15:16:25;16.50;56.10
38514;DHT22;24282;48.400;10.808;2023-03-23T15:19:02;16.50;56.90
38514;DHT22;24282;48.400;10.808;2023-03-23T15:21:32;16.50;54.50
38514;DHT22;24282;48.400;10.808;2023-03-23T15:24:17;16.50;54.10
38514;DHT22;24282;48.400;10.808;2023-03-23T15:26:44;16.50;55.00
38514;DHT22;24282;48.400;10.808;2023-03-23T15:31:46;16.40;55.50
38514;DHT22;24282;48.400;10.808;2023-03-23T15:34:21;16.40;55.00
38514;DHT22;24282;48.400;10.808;2023-03-23T15:36:56;16.50;54.40
38514;DHT22;24282;48.400;10.808;2023-03-23T15:39:22;16.40;54.60
38514;DHT22;24282;48.400;10.808;2023-03-23T15:41:51;16.40;54.10
38514;DHT22;24282;48.400;10.808;2023-03-23T15:44:29;16.40;54.00
38514;DHT22;24282;48.400;10.808;2023-03-23T15:47:14;16.40;54.00
38514;DHT22;24282;48.400;10.808;2023-03-23T15:49:42;16.30;54.50
38514;DHT22;24282;48.400;10.808;2023-03-23T15:52:10;16.20;55.10
38514;DHT22;24282;48.400;10.808;2023-03-23T15:54:37;16.20;54.60
38514;DHT22;24282;48.400;10.808;2023-03-23T15:57:03;16.10;54.50
38514;DHT22;24282;48.400;10.808;2023-03-23T15:59:29;16.10;54.30
38514;DHT22;24282;48.400;10.808;2023-03-23T16:01:55;16.10;54.80
38514;DHT22;24282;48.400;10.808;2023-03-23T16:04:21;16.00;55.30
38514;DHT22;24282;48.400;10.808;2023-03-23T16:06:49;16.10;55.10
38514;DHT22;24282;48.400;10.808;2023-03-23T16:09:18;16.10;55.10
38514;DHT22;24282;48.400;10.808;2023-03-23T16:11:45;16.00;55.40
38514;DHT22;24282;48.400;10.808;2023-03-23T16:14:11;16.00;55.60
38514;DHT22;24282;48.400;10.808;2023-03-23T16:16:45;15.90;55.80
38514;DHT22;24282;48.400;10.808;2023-03-23T16:19:13;15.90;56.10
38514;DHT22;24282;48.400;10.808;2023-03-23T16:21:39;15.80;56.40
38514;DHT22;24282;48.400;10.808;2023-03-23T16:24:06;15.80;56.90
38514;DHT22;24282;48.400;10.808;2023-03-23T16:26:33;15.80;56.90
38514;DHT22;24282;48.400;10.808;2023-03-23T16:28:58;15.70;56.90
38514;DHT22;24282;48.400;10.808;2023-03-23T16:31:25;15.70;57.60
38514;DHT22;24282;48.400;10.808;2023-03-23T16:33:51;15.70;58.00
38514;DHT22;24282;48.400;10.808;2023-03-23T16:36:16;15.60;58.10
38514;DHT22;24282;48.400;10.808;2023-03-23T16:38:42;15.60;58.40
38514;DHT22;24282;48.400;10.808;2023-03-23T16:41:08;15.60;58.60
38514;DHT22;24282;48.400;10.808;2023-03-23T16:43:34;15.50;58.70
38514;DHT22;24282;48.400;10.808;2023-03-23T16:46:01;15.50;58.90
38514;DHT22;24282;48.400;10.808;2023-03-23T16:48:26;15.40;59.20
38514;DHT22;24282;48.400;10.808;2023-03-23T16:50:53;15.50;59.00
38514;DHT22;24282;48.400;10.808;2023-03-23T16:53:19;15.40;59.20
38514;DHT22;24282;48.400;10.808;2023-03-23T16:55:45;15.40;59.30
38514;DHT22;24282;48.400;10.808;2023-03-23T16:58:13;15.40;59.70
38514;DHT22;24282;48.400;10.808;2023-03-23T17:00:40;15.40;59.80
38514;DHT22;24282;48.400;10.808;2023-03-23T17:03:06;15.30;60.10
38514;DHT22;24282;48.400;10.808;2023-03-23T17:05:33;15.30;59.80
38514;DHT22;24282;48.400;10.808;2023-03-23T17:07:59;15.30;59.90
38514;DHT22;24282;48.400;10.808;2023-03-23T17:10:27;15.30;60.00
38514;DHT22;24282;48.400;10.808;2023-03-23T17:12:54;15.20;60.30
38514;DHT22;24282;48.400;10.808;2023-03-23T17:15:20;15.20;60.40
38514;DHT22;24282;48.400;10.808;2023-03-23T17:17:46;15.10;60.70
38514;DHT22;24282;48.400;10.808;2023-03-23T17:20:12;15.10;60.90
38514;DHT22;24282;48.400;10.808;2023-03-23T17:22:39;15.20;60.80
38514;DHT22;24282;48.400;10.808;2023-03-23T17:25:05;15.10;61.10
38514;DHT22;24282;48.400;10.808;2023-03-23T17:27:32;15.00;61.50
38514;DHT22;24282;48.400;10.808;2023-03-23T17:29:57;15.10;61.50
38514;DHT22;24282;48.400;10.808;2023-03-23T17:32:23;15.00;61.60
38514;DHT22;24282;48.400;10.808;2023-03-23T17:34:50;15.00;61.60
38514;DHT22;24282;48.400;10.808;2023-03-23T17:37:16;14.90;61.80